Latest Weather Observations for Inner Beacon

IDQ60801

Issued at 7:32 pm EST Thursday 2 July 2015 (issued every 30 minutes, with the page automatically refreshed every 10 minutes)

About weather observations | Map of weather stations | Latest weather observations for QLD | Other Formats
Station Details ID: 040926 Name: INNER RECIPROCAL MARKER Lat: -27.26 Lon: 153.24 Height: 20.0 m
Data from the previous 72 hours. | See also: Recent months for locations in Queensland
Date/Time
EST
Temp
°C
App
Temp
°C
Dew
Point
Rel
Hum
%
Delta-T
°C
Wind Press
QNH
hPa
Press
MSL
hPa
Rain
since 9 am
mm
Dir
 
Spd
km/h
Gust
km/h
Spd
kts
Gust
kts
02/07:30pm - - - - - WSW 28 32 15 17 - - -
02/07:00pm - - - - - WSW 26 30 14 16 - - -
02/06:30pm - - - - - WSW 30 35 16 19 - - -
02/06:00pm - - - - - W 30 33 16 18 - - -
02/05:30pm - - - - - WSW 26 32 14 17 - - -
02/05:00pm - - - - - W 24 32 13 17 - - -
02/04:30pm - - - - - WSW 32 39 17 21 - - -
02/04:00pm - - - - - WSW 28 32 15 17 - - -
02/03:30pm - - - - - WSW 24 28 13 15 - - -
02/03:00pm - - - - - WSW 22 28 12 15 - - -
02/02:30pm - - - - - WNW 20 22 11 12 - - -
02/02:00pm - - - - - W 20 26 11 14 - - -
02/01:30pm - - - - - W 20 22 11 12 - - -
02/01:00pm - - - - - WSW 19 20 10 11 - - -
02/12:30pm - - - - - WSW 20 24 11 13 - - -
02/12:00pm - - - - - WSW 20 24 11 13 - - -
02/11:30am - - - - - WSW 20 24 11 13 - - -
02/11:00am - - - - - WSW 20 22 11 12 - - -
02/10:30am - - - - - WSW 17 20 9 11 - - -
02/10:00am - - - - - SW 19 24 10 13 - - -
02/09:30am - - - - - WSW 22 26 12 14 - - -
02/09:00am - - - - - WSW 20 24 11 13 - - -
02/08:30am - - - - - SW 22 26 12 14 - - -
02/08:00am - - - - - WSW 26 30 14 16 - - -
02/07:30am - - - - - WSW 22 26 12 14 - - -
02/07:00am - - - - - WSW 22 26 12 14 - - -
02/06:30am - - - - - WSW 26 30 14 16 - - -
02/06:00am - - - - - WSW 22 28 12 15 - - -
02/05:30am - - - - - WSW 22 24 12 13 - - -
02/05:00am - - - - - WSW 17 19 9 10 - - -
02/04:30am - - - - - WSW 20 22 11 12 - - -
02/04:00am - - - - - WSW 22 26 12 14 - - -
02/03:30am - - - - - WSW 24 30 13 16 - - -
02/03:00am - - - - - WSW 24 26 13 14 - - -
02/02:30am - - - - - WSW 22 26 12 14 - - -
02/02:00am - - - - - WSW 20 24 11 13 - - -
02/01:30am - - - - - WSW 24 30 13 16 - - -
02/01:00am - - - - - WSW 20 22 11 12 - - -
02/12:30am - - - - - W 17 19 9 10 - - -
02/12:00am - - - - - W 13 15 7 8 - - -
 
Date/Time
EST
Temp
°C
App
Temp
°C
Dew
Point
Rel
Hum
%
Delta-T
°C
Wind Press
QNH
hPa
Press
MSL
hPa
Rain
since 9 am
mm
Dir
 
Spd
km/h
Gust
km/h
Spd
kts
Gust
kts
01/11:30pm - - - - - W 19 20 10 11 - - -
01/11:00pm - - - - - W 19 20 10 11 - - -
01/10:30pm - - - - - W 17 20 9 11 - - -
01/10:00pm - - - - - W 22 24 12 13 - - -
01/09:30pm - - - - - WSW 17 19 9 10 - - -
01/09:00pm - - - - - W 17 20 9 11 - - -
01/08:30pm - - - - - W 22 26 12 14 - - -
01/08:00pm - - - - - WSW 13 15 7 8 - - -
01/07:30pm - - - - - W 9 15 5 8 - - -
01/07:00pm - - - - - N 6 7 3 4 - - -
01/06:30pm - - - - - NNE 9 9 5 5 - - -
01/06:00pm - - - - - NE 9 9 5 5 - - -
01/05:30pm - - - - - NE 9 11 5 6 - - -
01/05:00pm - - - - - NE 7 9 4 5 - - -
01/04:30pm - - - - - NE 7 9 4 5 - - -
01/04:00pm - - - - - NE 7 9 4 5 - - -
01/03:30pm - - - - - ENE 7 9 4 5 - - -
01/03:00pm - - - - - NE 7 9 4 5 - - -
01/02:30pm - - - - - ENE 7 9 4 5 - - -
01/02:00pm - - - - - E 6 7 3 4 - - -
01/01:30pm - - - - - ENE 7 9 4 5 - - -
01/01:00pm - - - - - SSE 6 7 3 4 - - -
01/12:30pm - - - - - S 9 11 5 6 - - -
01/12:00pm - - - - - S 11 13 6 7 - - -
01/11:30am - - - - - S 9 11 5 6 - - -
01/11:00am - - - - - SW 9 11 5 6 - - -
01/10:30am - - - - - SW 9 11 5 6 - - -
01/10:00am - - - - - SW 11 13 6 7 - - -
01/09:30am - - - - - SW 11 13 6 7 - - -
01/09:00am - - - - - SW 9 11 5 6 - - -
01/08:30am - - - - - SW 9 11 5 6 - - -
01/08:00am - - - - - SW 13 15 7 8 - - -
01/07:30am - - - - - SW 11 13 6 7 - - -
01/07:00am - - - - - SSW 13 15 7 8 - - -
01/06:30am - - - - - SSW 15 17 8 9 - - -
01/06:00am - - - - - SSW 17 19 9 10 - - -
01/05:30am - - - - - SW 17 20 9 11 - - -
01/05:00am - - - - - SW 17 19 9 10 - - -
01/04:30am - - - - - SW 17 20 9 11 - - -
01/04:00am - - - - - SSW 15 17 8 9 - - -
01/03:30am - - - - - SSW 15 17 8 9 - - -
01/03:00am - - - - - SSW 13 13 7 7 - - -
01/02:30am - - - - - SSW 13 15 7 8 - - -
01/02:00am - - - - - SW 15 17 8 9 - - -
01/01:30am - - - - - SSW 13 15 7 8 - - -
01/01:00am - - - - - SW 11 13 6 7 - - -
01/12:30am - - - - - SW 13 13 7 7 - - -
01/12:00am - - - - - WSW 11 13 6 7 - - -
 
Date/Time
EST
Temp
°C
App
Temp
°C
Dew
Point
Rel
Hum
%
Delta-T
°C
Wind Press
QNH
hPa
Press
MSL
hPa
Rain
since 9 am
mm
Dir
 
Spd
km/h
Gust
km/h
Spd
kts
Gust
kts
30/11:30pm - - - - - WSW 13 15 7 8 - - -
30/11:00pm - - - - - WSW 9 9 5 5 - - -
30/10:30pm - - - - - SW 7 7 4 4 - - -
30/10:00pm - - - - - SSW 7 7 4 4 - - -
30/09:30pm - - - - - S 9 9 5 5 - - -
30/09:00pm - - - - - SSE 7 9 4 5 - - -
30/08:30pm - - - - - SSE 7 7 4 4 - - -
30/08:00pm - - - - - SSE 6 7 3 4 - - -
30/07:30pm - - - - - SSE 7 9 4 5 - - -
30/07:00pm - - - - - SSE 7 9 4 5 - - -
30/06:30pm - - - - - SSE 11 13 6 7 - - -
30/06:00pm - - - - - SSE 7 9 4 5 - - -
30/05:30pm - - - - - SSE 7 7 4 4 - - -
30/05:00pm - - - - - SE 6 6 3 3 - - -
30/04:30pm - - - - - SE 4 4 2 2 - - -
30/04:00pm - - - - - SE 6 6 3 3 - - -
30/03:30pm - - - - - SSE 7 7 4 4 - - -
30/03:00pm - - - - - SSE 9 9 5 5 - - -
30/02:30pm - - - - - SSE 11 13 6 7 - - -
30/02:00pm - - - - - SSE 9 9 5 5 - - -
30/01:30pm - - - - - S 9 11 5 6 - - -
30/01:00pm - - - - - S 15 19 8 10 - - -
30/12:30pm - - - - - S 15 17 8 9 - - -
30/12:00pm - - - - - SSE 15 17 8 9 - - -
30/11:30am - - - - - S 15 17 8 9 - - -
30/11:00am - - - - - S 19 20 10 11 - - -
30/10:30am - - - - - SSW 20 22 11 12 - - -
30/10:00am - - - - - SSW 20 22 11 12 - - -
30/09:30am - - - - - S 19 20 10 11 - - -
30/09:00am - - - - - SSW 17 19 9 10 - - -
30/08:30am - - - - - SW 24 26 13 14 - - -
30/08:00am - - - - - SW 24 28 13 15 - - -
30/07:30am - - - - - SSW 24 30 13 16 - - -
30/07:00am - - - - - SSW 20 22 11 12 - - -
30/06:30am - - - - - SSW 19 20 10 11 - - -
30/06:00am - - - - - SW 22 24 12 13 - - -
30/05:30am - - - - - SW 24 28 13 15 - - -
30/05:00am - - - - - SW 19 22 10 12 - - -
30/04:30am - - - - - SW 19 22 10 12 - - -
30/04:00am - - - - - SSW 17 20 9 11 - - -
30/03:30am - - - - - SW 20 22 11 12 - - -
30/03:00am - - - - - SW 20 22 11 12 - - -
30/02:30am - - - - - SW 17 20 9 11 - - -
30/02:00am - - - - - SSW 17 19 9 10 - - -
30/01:30am - - - - - SSW 22 24 12 13 - - -
30/01:00am - - - - - S 20 26 11 14 - - -
30/12:30am - - - - - S 19 22 10 12 - - -
30/12:00am - - - - - S 20 26 11 14 - - -
 
Date/Time
EST
Temp
°C
App
Temp
°C
Dew
Point
Rel
Hum
%
Delta-T
°C
Wind Press
QNH
hPa
Press
MSL
hPa
Rain
since 9 am
mm
Dir
 
Spd
km/h
Gust
km/h
Spd
kts
Gust
kts
29/11:30pm - - - - - SSW 19 22 10 12 - - -
29/11:00pm - - - - - SSW 22 26 12 14 - - -
29/10:30pm - - - - - SSW 24 28 13 15 - - -
29/10:00pm - - - - - S 20 28 11 15 - - -
29/09:30pm - - - - - S 17 20 9 11 - - -
29/09:00pm - - - - - S 30 37 16 20 - - -
29/08:30pm - - - - - S 32 37 17 20 - - -
29/08:00pm - - - - - S 30 33 16 18 - - -

Other Formats:

Comma delimited format used in spreadsheet applications
http://www.bom.gov.au/fwo/IDQ60801/IDQ60801.94590.axf

JavaScript Object Notation format (JSON) in row-major order
http://www.bom.gov.au/fwo/IDQ60801/IDQ60801.94590.json